TFM - Tactical Decision Aid (Experimental) INFO Settings
ID: Runway Winds: CIG/VIS Threshold: METAR Board: Map:

KCUB - Columbia-Jim Hamilton LB Owens

Updated at: 0937 UTC 17 Oct 2017
Latest TAF at: 0835 UTC 17 Oct 2017

TAF Board

Time0853Z17/10Z17/11Z17/12Z17/13Z17/14Z17/15Z17/16Z17/17Z17/18Z17/19Z17/20Z17/21Z17/22Z
TypeOBSPRVLPRVLPRVLPRVLPRVLPRVLPRVLPRVLPRVLPRVLPRVLPRVLPRVL
VIS10>6>6>6>6>6>6>6>6>6>6>6>6>6
CIG----------------------------
CoverCLRSKCSKCSKCSKCSKCSKCSKCSKCSKCSKCSKCSKCSKC
FltCatVFRVFRVFRVFRVFRVFRVFRVFRVFRVFRVFRVFRVFRVFR
WX----------------------------
WDirVRB202020202040404040404040VRB
WSpd44444488888880
WGst------------15151515151515--
TAF
KCUB 170835Z 1709/1806 02004KT P6SM SKC WS015/01035KT
  FM171500 04008G15KT P6SM SKC
  FM172200 00000KT P6SM SKC
  FM180200 VRB03KT P6SM SKC


METAR
KCUB 170853Z AUTO VRB04KT 10SM CLR 13/04 A3024 RMK AO2 SLP240 T01280044 53004

TAF/METAR Board Legend

Potential Impact
  None Marginal Slight Moderate High
Visibility (sm) >5 3≤X≤5 2≤X<3 1≤X<2 <1
Ceiling (100 ft) >30 10≤X≤30 8≤X<10 5≤X<8 <5
Wind Speed (kt) <10 10≤X<20 20≤X<30 ≥30
Wind Gust (kt) <15 15≤X<25 25≤X<35 ≥35
Weather No Wx Reported VCTS -TS,-FZRA TS,FZRA +TS,+FZRA